Time;durP1;ratioP1;P1;durP2;ratioP2;P2;SDS_P1;SDS_P2;PMS_P1;PMS_P2;Temp;Humidity;BMP_temperature;BMP_pressure;BME280_temperature;BME280_humidity;BME280_pressure;Samples;Min_cycle;Max_cycle;Signal;HPM_P1;HPM_P2
2021/10/24 00:00:25;;;;;;;;;;;;;;;7.17;65.64;99574.55;1744565;81;24735;-82
2021/10/24 00:02:53;;;;;;;;;;;;;;;7.15;65.66;99578.50;1743809;81;20235;-82
2021/10/24 00:05:19;;;;;;;;;;;;;;;7.14;65.68;99573.38;1744581;81;21117;-81
2021/10/24 00:07:45;;;;;;;;;;;;;;;7.12;65.72;99583.84;1742819;81;20781;-82
2021/10/24 00:10:11;;;;;;;;;;;;;;;7.09;65.73;99583.93;1744252;81;20223;-82
2021/10/24 00:12:37;;;;;;;;;;;;;;;7.06;65.76;99586.66;1743683;81;20336;-82
2021/10/24 00:15:03;;;;;;;;;;;;;;;7.06;65.80;99593.62;1743989;82;20270;-82
2021/10/24 00:17:30;;;;;;;;;;;;;;;7.04;65.81;99590.22;1742705;81;26027;-81
2021/10/24 00:19:56;;;;;;;;;;;;;;;7.02;65.86;99590.30;1743927;82;24033;-82
2021/10/24 00:22:22;;;;;;;;;;;;;;;7.04;65.88;99585.86;1743483;82;20277;-82
2021/10/24 00:24:48;;;;;;;;;;;;;;;7.06;65.93;99587.11;1743642;82;20302;-82
2021/10/24 00:27:14;;;;;;;;;;;;;;;7.06;65.97;99587.97;1743869;82;20683;-82
2021/10/24 00:29:40;;;;;;;;;;;;;;;7.06;65.99;99581.45;1758054;81;20978;-82
2021/10/24 00:32:06;;;;;;;;;;;;;;;7.07;66.01;99588.37;1760383;81;24700;-82
2021/10/24 00:34:32;;;;;;;;;;;;;;;7.07;66.07;99588.37;1759648;81;20804;-82
2021/10/24 00:36:59;;;;;;;;;;;;;;;7.07;66.09;99588.81;1759821;80;24795;-83
2021/10/24 00:39:26;;;;;;;;;;;;;;;7.05;66.13;99583.66;1760115;80;22767;-83
2021/10/24 00:41:52;;;;;;;;;;;;;;;7.05;66.16;99586.27;1759721;80;20990;-83
2021/10/24 00:44:26;;;;;;;;;;;;;;;7.07;66.19;99594.88;1760189;80;24484;-83
2021/10/24 00:46:52;;;;;;;;;;;;;;;7.07;66.24;99589.67;1759605;80;20332;-82
2021/10/24 00:49:19;;;;;;;;;;;;;;;7.07;66.27;99588.81;1758913;80;24902;-82
2021/10/24 00:51:46;;;;;;;;;;;;;;;7.05;66.29;99580.20;1760014;80;22021;-82
2021/10/24 00:54:13;;;;;;;;;;;;;;;7.03;66.31;99575.08;1756352;81;26182;-83
2021/10/24 00:56:40;;;;;;;;;;;;;;;7.03;66.33;99582.03;1758375;81;24546;-82
2021/10/24 00:59:08;;;;;;;;;;;;;;;7.02;66.36;99577.73;1760327;80;20159;-82
2021/10/24 01:01:34;;;;;;;;;;;;;;;7.00;66.39;99582.98;1760357;81;25630;-82
2021/10/24 01:04:01;;;;;;;;;;;;;;;7.00;66.41;99577.78;1758901;80;22153;-82
2021/10/24 01:06:27;;;;;;;;;;;;;;;6.99;66.46;99576.08;1717948;81;25951;-82
2021/10/24 01:08:54;;;;;;;;;;;;;;;7.00;66.50;99576.92;1759674;80;24448;-82
2021/10/24 01:11:20;;;;;;;;;;;;;;;7.00;66.53;99584.28;1759979;81;20217;-82
2021/10/24 01:13:46;;;;;;;;;;;;;;;7.00;66.56;99587.34;1759370;80;20289;-82
2021/10/24 01:16:14;;;;;;;;;;;;;;;6.97;66.58;99588.31;1760836;81;22138;-82
2021/10/24 01:18:40;;;;;;;;;;;;;;;6.98;66.61;99591.29;1760369;80;26152;-82
2021/10/24 01:21:06;;;;;;;;;;;;;;;6.97;66.62;99583.11;1760644;80;24576;-82
2021/10/24 01:23:32;;;;;;;;;;;;;;;6.96;66.66;99584.02;1758157;80;20187;-82
2021/10/24 01:26:05;;;;;;;;;;;;;;;6.97;66.71;99577.91;1760320;80;24938;-82
2021/10/24 01:28:31;;;;;;;;;;;;;;;7.00;66.75;99580.83;1756905;80;22034;-82
2021/10/24 01:30:58;;;;;;;;;;;;;;;7.01;66.77;99588.59;1709151;83;25997;-82
2021/10/24 01:33:24;;;;;;;;;;;;;;;7.02;66.82;99589.44;1713964;83;25341;-82
2021/10/24 01:35:57;;;;;;;;;;;;;;;7.02;66.88;99591.59;1753072;82;20498;-81
2021/10/24 01:38:24;;;;;;;;;;;;;;;7.04;66.89;99594.97;1731433;82;24692;-81
2021/10/24 01:40:51;;;;;;;;;;;;;;;7.08;66.90;99596.58;1758896;81;22053;-82
2021/10/24 01:43:21;;;;;;;;;;;;;;;7.11;66.96;99592.99;1730833;81;27163;-82
2021/10/24 01:45:47;;;;;;;;;;;;;;;7.14;66.97;99600.26;1759212;81;24538;-81
2021/10/24 01:48:14;;;;;;;;;;;;;;;7.18;67.03;99593.62;1760173;80;20261;-81
2021/10/24 01:50:40;;;;;;;;;;;;;;;7.18;67.03;99594.92;1759447;81;24813;-81
2021/10/24 01:53:07;;;;;;;;;;;;;;;7.17;67.02;99594.52;1760181;80;22017;-82
2021/10/24 01:55:34;;;;;;;;;;;;;;;7.20;67.04;99594.42;1759606;80;26175;-82
2021/10/24 01:58:03;;;;;;;;;;;;;;;7.20;67.05;99595.24;1760357;81;23992;-82
2021/10/24 02:00:29;;;;;;;;;;;;;;;7.19;67.07;99594.88;1760120;80;20516;-82
2021/10/24 02:02:55;;;;;;;;;;;;;;;7.21;67.08;99603.45;1760746;80;24825;-82
2021/10/24 02:05:21;;;;;;;;;;;;;;;7.22;67.07;99598.65;1757593;80;20935;-82
2021/10/24 02:07:47;;;;;;;;;;;;;;;7.19;67.06;99598.78;1760137;80;26015;-82
2021/10/24 02:10:15;;;;;;;;;;;;;;;7.18;67.04;99597.08;1760695;80;24518;-82
2021/10/24 02:12:41;;;;;;;;;;;;;;;7.18;67.05;99597.52;1758873;81;20678;-82
2021/10/24 02:15:09;;;;;;;;;;;;;;;7.14;66.98;99592.90;1760203;81;24743;-81
2021/10/24 02:17:35;;;;;;;;;;;;;;;7.13;66.99;99593.80;1760249;80;21943;-81
2021/10/24 02:20:02;;;;;;;;;;;;;;;7.14;66.98;99591.15;1760448;81;25932;-81
2021/10/24 02:22:28;;;;;;;;;;;;;;;7.14;67.02;99591.15;1759399;80;24460;-81
2021/10/24 02:24:54;;;;;;;;;;;;;;;7.13;67.00;99599.00;1760109;80;20851;-81
2021/10/24 02:27:20;;;;;;;;;;;;;;;7.06;66.99;99598.38;1760132;80;25020;-81
2021/10/24 02:29:46;;;;;;;;;;;;;;;6.94;66.96;99597.97;1759651;81;20894;-81
2021/10/24 02:32:12;;;;;;;;;;;;;;;6.87;66.94;99596.06;1760315;80;26090;-81
2021/10/24 02:34:44;;;;;;;;;;;;;;;6.88;66.94;99592.98;1759415;80;24434;-82
2021/10/24 02:37:10;;;;;;;;;;;;;;;6.88;66.94;99604.69;1757946;80;20218;-82
2021/10/24 02:39:37;;;;;;;;;;;;;;;6.88;66.95;99600.79;1760010;80;24711;-82
2021/10/24 02:42:07;;;;;;;;;;;;;;;6.88;66.98;99612.05;1758613;80;22800;-82
2021/10/24 02:44:33;;;;;;;;;;;;;;;6.86;67.00;99604.77;1756520;80;26983;-82
2021/10/24 02:47:00;;;;;;;;;;;;;;;6.85;66.99;99607.42;1760129;80;24565;-82
2021/10/24 02:49:29;;;;;;;;;;;;;;;6.82;67.02;99600.55;1760746;80;20345;-82
2021/10/24 02:51:57;;;;;;;;;;;;;;;6.84;67.04;99605.72;1756241;81;25694;-82
2021/10/24 02:54:24;;;;;;;;;;;;;;;6.81;67.07;99598.03;1729088;81;21996;-82
2021/10/24 02:56:50;;;;;;;;;;;;;;;6.77;67.06;99605.08;1759790;80;26036;-82
2021/10/24 02:59:17;;;;;;;;;;;;;;;6.79;67.07;99609.79;1760159;80;20911;-82
2021/10/24 03:01:43;;;;;;;;;;;;;;;6.77;67.07;99610.28;1755757;80;20171;-82
2021/10/24 03:04:11;;;;;;;;;;;;;;;6.78;67.10;99613.29;1760367;81;20253;-81
2021/10/24 03:06:37;;;;;;;;;;;;;;;6.72;67.08;99616.95;1754869;81;22256;-82
2021/10/24 03:09:03;;;;;;;;;;;;;;;6.68;67.08;99609.31;1757616;80;25978;-82
2021/10/24 03:11:29;;;;;;;;;;;;;;;6.73;67.11;99616.06;1757777;80;24429;-83
2021/10/24 03:13:55;;;;;;;;;;;;;;;6.65;67.12;99625.05;1756491;80;20232;-82
2021/10/24 03:16:21;;;;;;;;;;;;;;;6.60;67.11;99633.46;1759516;81;20350;-81
2021/10/24 03:18:47;;;;;;;;;;;;;;;6.50;67.09;99625.11;1759374;80;21943;-82
2021/10/24 03:21:13;;;;;;;;;;;;;;;6.52;67.12;99613.36;1759861;80;26015;-82
2021/10/24 03:23:40;;;;;;;;;;;;;;;6.53;67.16;99612.46;1758615;80;24454;-81
2021/10/24 03:26:06;;;;;;;;;;;;;;;6.50;67.18;99621.65;1758370;80;20552;-82
2021/10/24 03:28:34;;;;;;;;;;;;;;;6.51;67.21;99622.91;1759963;81;24800;-81
2021/10/24 03:31:02;;;;;;;;;;;;;;;6.39;67.21;99623.77;1760706;80;22606;-82
2021/10/24 03:33:28;;;;;;;;;;;;;;;6.28;67.22;99617.19;1760249;81;26078;-82
2021/10/24 03:35:56;;;;;;;;;;;;;;;6.37;67.26;99622.98;1758598;80;24487;-82
2021/10/24 03:38:23;;;;;;;;;;;;;;;6.45;67.32;99631.36;1760041;80;20449;-82
2021/10/24 03:40:49;;;;;;;;;;;;;;;6.50;67.36;99630.75;1760043;80;24874;-81
2021/10/24 03:43:15;;;;;;;;;;;;;;;6.47;67.39;99626.52;1760559;81;22078;-81
2021/10/24 03:45:41;;;;;;;;;;;;;;;6.45;67.41;99627.46;1758517;80;21208;-82
2021/10/24 03:48:07;;;;;;;;;;;;;;;6.42;67.43;99624.53;1755877;81;20233;-82
2021/10/24 03:50:33;;;;;;;;;;;;;;;6.42;67.44;99625.83;1760011;80;20297;-82
2021/10/24 03:53:00;;;;;;;;;;;;;;;6.45;67.46;99629.61;1760083;80;24801;-82
2021/10/24 03:55:26;;;;;;;;;;;;;;;6.46;67.50;99632.63;1760211;80;22062;-82
2021/10/24 03:57:52;;;;;;;;;;;;;;;6.50;67.55;99639.85;1760411;80;25903;-81
2021/10/24 04:00:18;;;;;;;;;;;;;;;6.50;67.60;99638.11;1759216;80;24407;-81
2021/10/24 04:02:55;;;;;;;;;;;;;;;6.54;67.67;99641.47;1729638;81;20206;-81
2021/10/24 04:05:22;;;;;;;;;;;;;;;6.58;67.69;99638.70;1758917;80;24749;-81
2021/10/24 04:07:52;;;;;;;;;;;;;;;6.62;67.74;99645.50;1760283;80;21966;-82
2021/10/24 04:10:20;;;;;;;;;;;;;;;6.62;67.76;99646.80;1759488;80;39101;-82
2021/10/24 04:12:46;;;;;;;;;;;;;;;6.67;67.80;99646.18;1757962;80;24649;-82
2021/10/24 04:15:19;;;;;;;;;;;;;;;6.58;67.81;99647.81;1759867;81;20171;-82
2021/10/24 04:17:45;;;;;;;;;;;;;;;6.62;67.85;99652.00;1760590;80;24816;-82
2021/10/24 04:20:13;;;;;;;;;;;;;;;6.56;67.85;99649.60;1727933;81;22025;-81
2021/10/24 04:22:43;;;;;;;;;;;;;;;6.44;67.85;99650.02;1731835;82;26696;-82
2021/10/24 04:25:10;;;;;;;;;;;;;;;6.30;67.86;99659.59;1724823;83;24622;-81
2021/10/24 04:27:37;;;;;;;;;;;;;;;6.21;67.91;99654.70;1751865;82;20206;-81
2021/10/24 04:30:05;;;;;;;;;;;;;;;6.25;67.96;99642.44;1759604;80;24878;-82
2021/10/24 04:32:35;;;;;;;;;;;;;;;6.37;68.06;99645.09;1757899;80;21701;-82
2021/10/24 04:35:02;;;;;;;;;;;;;;;6.45;68.14;99649.12;1758020;80;26803;-82
2021/10/24 04:37:28;;;;;;;;;;;;;;;6.46;68.18;99648.22;1762098;80;24452;-82
2021/10/24 04:39:54;;;;;;;;;;;;;;;6.44;68.20;99646.55;1758098;80;20281;-82
2021/10/24 04:42:21;;;;;;;;;;;;;;;6.47;68.23;99643.87;1759983;80;20343;-81
2021/10/24 04:44:47;;;;;;;;;;;;;;;6.53;68.25;99649.72;1760093;80;22078;-82
2021/10/24 04:47:14;;;;;;;;;;;;;;;6.53;68.24;99642.37;1758851;80;21112;-82
2021/10/24 04:49:40;;;;;;;;;;;;;;;6.49;68.23;99639.48;1757899;80;24427;-82
2021/10/24 04:52:06;;;;;;;;;;;;;;;6.44;68.21;99643.95;1760326;80;20884;-82
2021/10/24 04:54:32;;;;;;;;;;;;;;;6.41;68.23;99644.92;1758554;80;24754;-82
2021/10/24 04:56:58;;;;;;;;;;;;;;;6.39;68.20;99650.62;1760024;80;21958;-82
2021/10/24 04:59:24;;;;;;;;;;;;;;;6.39;68.21;99647.16;1758469;81;25972;-83
2021/10/24 05:01:50;;;;;;;;;;;;;;;6.34;68.21;99647.77;1760247;80;24387;-83
2021/10/24 05:04:18;;;;;;;;;;;;;;;6.37;68.20;99651.59;1760379;80;20211;-83
2021/10/24 05:06:44;;;;;;;;;;;;;;;6.38;68.18;99653.30;1758813;80;24882;-83
2021/10/24 05:09:10;;;;;;;;;;;;;;;6.33;68.16;99666.41;1760328;80;20245;-83
2021/10/24 05:11:36;;;;;;;;;;;;;;;6.27;68.14;99667.95;1760204;80;26009;-83
2021/10/24 05:14:03;;;;;;;;;;;;;;;6.23;68.13;99665.02;1760718;80;20892;-83
2021/10/24 05:16:29;;;;;;;;;;;;;;;6.22;68.11;99670.67;1760075;81;20485;-82
2021/10/24 05:18:56;;;;;;;;;;;;;;;6.20;68.09;99671.19;1757639;80;24857;-82
2021/10/24 05:21:22;;;;;;;;;;;;;;;6.17;68.06;99667.38;1758467;80;21931;-82
2021/10/24 05:23:50;;;;;;;;;;;;;;;6.14;68.08;99668.78;1760435;81;26063;-82
2021/10/24 05:26:16;;;;;;;;;;;;;;;6.12;68.07;99668.41;1759271;81;24371;-83
2021/10/24 05:28:42;;;;;;;;;;;;;;;6.05;68.05;99672.98;1760648;80;20445;-83
2021/10/24 05:31:08;;;;;;;;;;;;;;;6.00;68.04;99670.95;1732547;81;24798;-82
2021/10/24 05:33:34;;;;;;;;;;;;;;;5.96;68.06;99675.86;1728907;81;20233;-83
2021/10/24 05:36:00;;;;;;;;;;;;;;;5.93;68.08;99679.86;1724331;82;20953;-82
2021/10/24 05:38:26;;;;;;;;;;;;;;;5.84;68.06;99679.64;1726813;82;20281;-82
2021/10/24 05:40:52;;;;;;;;;;;;;;;5.76;68.06;99677.75;1727587;83;20317;-82
2021/10/24 05:43:18;;;;;;;;;;;;;;;5.72;68.08;99680.05;1726821;81;24861;-82
2021/10/24 05:45:45;;;;;;;;;;;;;;;5.67;68.09;99688.87;1723895;83;20289;-82
2021/10/24 05:48:14;;;;;;;;;;;;;;;5.64;68.09;99698.89;1728217;82;26103;-82
2021/10/24 05:50:40;;;;;;;;;;;;;;;5.65;68.15;99701.03;1726566;83;24449;-81
2021/10/24 05:53:07;;;;;;;;;;;;;;;5.62;68.17;99705.04;1728631;83;20497;-82
2021/10/24 05:55:35;;;;;;;;;;;;;;;5.63;68.22;99704.11;1728709;82;24798;-82
2021/10/24 05:58:02;;;;;;;;;;;;;;;5.59;68.27;99705.11;1728990;82;21970;-82
2021/10/24 06:00:28;;;;;;;;;;;;;;;5.52;68.28;99707.47;1728743;81;26193;-82
2021/10/24 06:02:54;;;;;;;;;;;;;;;5.52;68.30;99712.66;1728659;81;20434;-82
2021/10/24 06:05:20;;;;;;;;;;;;;;;5.53;68.37;99718.27;1726374;82;20404;-82
2021/10/24 06:07:47;;;;;;;;;;;;;;;5.55;68.41;99717.78;1727338;83;20836;-81
2021/10/24 06:10:20;;;;;;;;;;;;;;;5.55;68.45;99725.58;1728732;82;22829;-81
2021/10/24 06:12:47;;;;;;;;;;;;;;;5.55;68.49;99729.03;1728412;83;25938;-81
2021/10/24 06:15:14;;;;;;;;;;;;;;;5.55;68.52;99724.28;1726946;82;24586;-81
2021/10/24 06:17:40;;;;;;;;;;;;;;;5.56;68.60;99733.33;1728212;83;20229;-81
2021/10/24 06:20:13;;;;;;;;;;;;;;;5.56;68.65;99728.14;1726145;83;24799;-81
2021/10/24 06:22:39;;;;;;;;;;;;;;;5.57;68.72;99738.05;1728454;81;21685;-81
2021/10/24 06:25:06;;;;;;;;;;;;;;;5.57;68.80;99743.23;1727127;83;26045;-81
2021/10/24 06:27:34;;;;;;;;;;;;;;;5.57;68.84;99744.54;1727404;82;24550;-82
2021/10/24 06:30:00;;;;;;;;;;;;;;;5.59;68.90;99740.16;1732559;81;20224;-82
2021/10/24 06:32:26;;;;;;;;;;;;;;;5.66;68.94;99748.19;1742374;81;20347;-82
2021/10/24 06:34:52;;;;;;;;;;;;;;;5.73;69.02;99746.65;1744464;81;22021;-82
2021/10/24 06:37:19;;;;;;;;;;;;;;;5.81;69.11;99749.03;1743421;81;21001;-82
2021/10/24 06:39:45;;;;;;;;;;;;;;;5.85;69.20;99751.94;1743403;81;24531;-82
2021/10/24 06:42:11;;;;;;;;;;;;;;;5.94;69.30;99743.92;1741951;82;20473;-82
2021/10/24 06:44:38;;;;;;;;;;;;;;;5.99;69.42;99748.97;1742497;81;24783;-82
2021/10/24 06:47:04;;;;;;;;;;;;;;;6.03;69.54;99759.22;1722421;82;21714;-82
2021/10/24 06:49:30;;;;;;;;;;;;;;;6.10;69.64;99757.30;1744432;81;26035;-82
2021/10/24 06:51:57;;;;;;;;;;;;;;;6.19;69.74;99762.20;1743472;81;20446;-82
2021/10/24 06:54:23;;;;;;;;;;;;;;;6.33;69.86;99757.89;1744315;81;20314;-82
2021/10/24 06:56:49;;;;;;;;;;;;;;;6.45;69.98;99758.33;1744408;81;24876;-82
2021/10/24 06:59:15;;;;;;;;;;;;;;;6.59;70.08;99755.30;1744313;81;20329;-82
2021/10/24 07:01:41;;;;;;;;;;;;;;;6.68;70.20;99755.84;1744352;81;26030;-82
2021/10/24 07:04:11;;;;;;;;;;;;;;;6.73;70.30;99764.78;1744528;81;20856;-82
2021/10/24 07:06:38;;;;;;;;;;;;;;;6.72;70.36;99763.94;1744056;81;20244;-82
2021/10/24 07:09:04;;;;;;;;;;;;;;;6.70;70.40;99764.91;1742168;81;24865;-82
2021/10/24 07:11:30;;;;;;;;;;;;;;;6.75;70.43;99768.20;1744335;81;22038;-83
2021/10/24 07:13:56;;;;;;;;;;;;;;;6.75;70.46;99766.05;1740149;81;26013;-83
2021/10/24 07:16:22;;;;;;;;;;;;;;;6.81;70.50;99766.70;1722886;82;20254;-83
2021/10/24 07:18:48;;;;;;;;;;;;;;;6.91;70.57;99766.78;1742578;81;20266;-82
2021/10/24 07:21:14;;;;;;;;;;;;;;;7.00;70.59;99762.56;1744150;81;24728;-82
2021/10/24 07:23:41;;;;;;;;;;;;;;;7.06;70.64;99763.66;1743662;81;22121;-82
2021/10/24 07:26:07;;;;;;;;;;;;;;;7.15;70.67;99772.44;1744484;81;26051;-82
2021/10/24 07:28:33;;;;;;;;;;;;;;;7.20;70.70;99772.76;1744002;81;20313;-82
2021/10/24 07:31:02;;;;;;;;;;;;;;;7.25;70.73;99774.74;1752646;80;20219;-82
2021/10/24 07:33:28;;;;;;;;;;;;;;;7.31;70.74;99780.56;1760025;80;24745;-82
2021/10/24 07:35:57;;;;;;;;;;;;;;;7.40;70.76;99780.26;1758380;80;23024;-83
2021/10/24 07:38:22;;;;;;;;;;;;;;;7.44;70.79;99780.98;1757949;81;26074;-82
2021/10/24 07:40:49;;;;;;;;;;;;;;;7.43;70.80;99778.83;1754408;80;25154;-82
2021/10/24 07:43:17;;;;;;;;;;;;;;;7.45;70.80;99776.19;1759584;80;20187;-82
2021/10/24 07:45:43;;;;;;;;;;;;;;;7.54;70.81;99784.96;1759871;80;25447;-82
2021/10/24 07:48:09;;;;;;;;;;;;;;;7.55;70.82;99786.22;1760138;80;22067;-82
2021/10/24 07:50:35;;;;;;;;;;;;;;;7.55;70.82;99784.91;1760236;80;25964;-82
2021/10/24 07:53:01;;;;;;;;;;;;;;;7.56;70.85;99787.92;1760757;80;20873;-82
2021/10/24 07:55:28;;;;;;;;;;;;;;;7.47;70.80;99784.33;1758865;80;20563;-82
2021/10/24 07:57:54;;;;;;;;;;;;;;;7.50;70.77;99785.98;1757774;80;20766;-82
2021/10/24 08:00:20;;;;;;;;;;;;;;;7.52;70.76;99790.25;1758387;80;21699;-82
2021/10/24 08:02:47;;;;;;;;;;;;;;;7.61;70.79;99789.05;1759353;80;20969;-82
2021/10/24 08:05:13;;;;;;;;;;;;;;;7.65;70.79;99791.08;1758228;80;24413;-81
2021/10/24 08:07:39;;;;;;;;;;;;;;;7.71;70.80;99790.41;1757984;80;20293;-82
2021/10/24 08:10:08;;;;;;;;;;;;;;;7.80;70.82;99793.16;1758971;80;24816;-81
2021/10/24 08:12:34;;;;;;;;;;;;;;;7.86;70.84;99791.59;1756863;80;22070;-82
2021/10/24 08:15:00;;;;;;;;;;;;;;;7.93;70.85;99791.33;1757761;80;25702;-82
2021/10/24 08:17:27;;;;;;;;;;;;;;;7.99;70.84;99796.31;1759272;80;20299;-81
2021/10/24 08:19:53;;;;;;;;;;;;;;;8.06;70.83;99797.39;1758020;80;20515;-81
2021/10/24 08:22:19;;;;;;;;;;;;;;;8.10;70.82;99796.35;1759401;80;24787;-82
2021/10/24 08:24:45;;;;;;;;;;;;;;;8.12;70.79;99792.80;1759456;80;22039;-82
2021/10/24 08:27:11;;;;;;;;;;;;;;;8.17;70.79;99795.22;1758662;80;27400;-82
2021/10/24 08:29:39;;;;;;;;;;;;;;;8.19;70.75;99794.69;1736933;80;24479;-82
2021/10/24 08:32:11;;;;;;;;;;;;;;;8.17;70.67;99794.77;1748798;80;20314;-82
2021/10/24 08:34:37;;;;;;;;;;;;;;;8.21;70.67;99792.44;1755516;80;24839;-82
2021/10/24 08:37:05;;;;;;;;;;;;;;;8.24;70.62;99797.97;1755464;80;22029;-82
2021/10/24 08:39:31;;;;;;;;;;;;;;;8.27;70.56;99800.47;1757477;80;26048;-82
2021/10/24 08:41:58;;;;;;;;;;;;;;;8.32;70.54;99802.48;1738334;81;24755;-81
2021/10/24 08:44:25;;;;;;;;;;;;;;;8.35;70.53;99809.72;1736186;81;20434;-82
2021/10/24 08:46:55;;;;;;;;;;;;;;;8.43;70.53;99805.52;1732199;81;24581;-82
2021/10/24 08:49:21;;;;;;;;;;;;;;;8.47;70.51;99797.96;1712422;81;22683;-82
2021/10/24 08:51:48;;;;;;;;;;;;;;;8.53;70.50;99797.72;1756108;80;21043;-82
2021/10/24 08:54:15;;;;;;;;;;;;;;;8.59;70.49;99792.27;1756118;80;24541;-82
2021/10/24 08:56:41;;;;;;;;;;;;;;;8.62;70.44;99797.34;1755722;80;20151;-81
2021/10/24 08:59:07;;;;;;;;;;;;;;;8.68;70.38;99801.47;1755663;80;24932;-81
2021/10/24 09:01:33;;;;;;;;;;;;;;;8.67;70.33;99798.49;1755750;80;21927;-81
2021/10/24 09:04:07;;;;;;;;;;;;;;;8.63;70.23;99806.88;1755607;80;26160;-82
2021/10/24 09:06:52;;;;;;;;;;;;;;;8.70;70.20;99810.09;1756359;80;25264;-81
2021/10/24 09:09:26;;;;;;;;;;;;;;;8.78;70.19;99812.78;1754622;80;20302;-83
2021/10/24 09:11:58;;;;;;;;;;;;;;;8.78;70.13;99808.05;1741838;80;24923;-82
2021/10/24 09:14:36;;;;;;;;;;;;;;;8.88;70.13;99804.14;1752070;81;22164;-81
2021/10/24 09:17:02;;;;;;;;;;;;;;;9.00;70.13;99810.63;1754588;81;26190;-81
2021/10/24 09:19:34;;;;;;;;;;;;;;;9.06;70.10;99811.64;1752813;81;24446;-81
2021/10/24 09:22:01;;;;;;;;;;;;;;;9.12;70.05;99808.33;1753901;80;20617;-81
2021/10/24 09:24:27;;;;;;;;;;;;;;;9.10;69.97;99808.02;1736338;80;24802;-81
2021/10/24 09:26:53;;;;;;;;;;;;;;;9.12;69.88;99816.16;1756110;80;20289;-81
2021/10/24 09:29:19;;;;;;;;;;;;;;;9.14;69.83;99811.73;1755436;80;20966;-81
2021/10/24 09:31:52;;;;;;;;;;;;;;;9.20;69.75;99809.33;1727610;82;24934;-82
2021/10/24 09:34:21;;;;;;;;;;;;;;;9.25;69.71;99806.06;1747605;82;20470;-81
2021/10/24 09:36:49;;;;;;;;;;;;;;;9.28;69.64;99811.14;1748936;80;25010;-81
2021/10/24 09:39:15;;;;;;;;;;;;;;;9.29;69.54;99808.07;1749407;80;21935;-81
2021/10/24 09:41:41;;;;;;;;;;;;;;;9.34;69.46;99804.34;1747737;80;26212;-81
2021/10/24 09:44:08;;;;;;;;;;;;;;;9.39;69.38;99804.14;1746311;80;20272;-81
2021/10/24 09:46:35;;;;;;;;;;;;;;;9.43;69.29;99813.12;1752246;80;20255;-81
2021/10/24 09:49:02;;;;;;;;;;;;;;;9.51;69.26;99812.31;1748831;82;24809;-81
2021/10/24 09:51:33;;;;;;;;;;;;;;;9.61;69.20;99805.77;1750697;80;22105;-81
2021/10/24 09:53:59;;;;;;;;;;;;;;;9.66;69.10;99804.25;1749787;80;25983;-81
2021/10/24 09:56:27;;;;;;;;;;;;;;;9.76;69.00;99809.94;1722899;82;20309;-82
2021/10/24 09:58:55;;;;;;;;;;;;;;;9.81;68.92;99804.05;1752358;82;20249;-81
2021/10/24 10:01:21;;;;;;;;;;;;;;;9.88;68.83;99811.98;1751504;80;24766;-81
2021/10/24 10:03:49;;;;;;;;;;;;;;;9.92;68.69;99812.26;1751455;80;21418;-82
2021/10/24 10:06:18;;;;;;;;;;;;;;;9.92;68.54;99810.95;1749581;80;26063;-81
2021/10/24 10:08:44;;;;;;;;;;;;;;;9.93;68.36;99815.23;1747493;80;25163;-81
2021/10/24 10:11:15;;;;;;;;;;;;;;;9.96;68.22;99806.81;1750003;80;20424;-81
2021/10/24 10:13:43;;;;;;;;;;;;;;;10.03;68.11;99805.63;1744098;81;24923;-81
2021/10/24 10:16:10;;;;;;;;;;;;;;;10.11;68.01;99807.88;1750439;81;22819;-81
2021/10/24 10:18:55;;;;;;;;;;;;;;;10.12;67.90;99810.88;1749833;80;26761;-82
2021/10/24 10:21:25;;;;;;;;;;;;;;;10.08;67.79;99811.95;1742955;81;24428;-81
2021/10/24 10:23:51;;;;;;;;;;;;;;;10.05;67.65;99807.69;1750793;80;20368;-81
2021/10/24 10:26:34;;;;;;;;;;;;;;;10.03;67.49;99800.85;1751988;82;24736;-81
2021/10/24 10:29:01;;;;;;;;;;;;;;;10.01;67.32;99798.75;1750457;81;22854;-81
2021/10/24 10:31:27;;;;;;;;;;;;;;;10.04;67.14;99793.37;1735771;82;26126;-82
2021/10/24 10:33:58;;;;;;;;;;;;;;;10.00;67.00;99793.98;1709971;82;20860;-82
2021/10/24 10:36:26;;;;;;;;;;;;;;;9.79;66.74;99791.48;1706758;83;20257;-82
2021/10/24 10:38:52;;;;;;;;;;;;;;;9.64;66.53;99789.11;1717976;82;24925;-82
2021/10/24 10:41:19;;;;;;;;;;;;;;;9.61;66.38;99784.00;1727897;81;21982;-82
2021/10/24 10:44:05;;;;;;;;;;;;;;;9.56;66.23;99785.52;1723123;83;26056;-81
2021/10/24 10:46:31;;;;;;;;;;;;;;;9.49;66.06;99781.47;1722944;83;24417;-81
2021/10/24 10:48:58;;;;;;;;;;;;;;;9.44;65.81;99778.20;1728473;83;20834;-81
2021/10/24 10:51:25;;;;;;;;;;;;;;;9.44;65.72;99769.52;1724820;82;24981;-81
2021/10/24 10:53:53;;;;;;;;;;;;;;;9.34;65.55;99766.47;1725349;83;22057;-82
2021/10/24 10:56:21;;;;;;;;;;;;;;;9.29;65.37;99758.44;1726541;83;26139;-81
2021/10/24 10:58:49;;;;;;;;;;;;;;;9.27;65.24;99755.92;1727647;81;24574;-80
2021/10/24 11:01:26;;;;;;;;;;;;;;;9.27;65.08;99754.61;1727518;81;20338;-81
2021/10/24 11:04:06;;;;;;;;;;;;;;;9.28;64.94;99751.52;1727603;83;25632;-82
2021/10/24 11:06:36;;;;;;;;;;;;;;;9.28;64.78;99750.20;1724561;82;22261;-81
2021/10/24 11:09:04;;;;;;;;;;;;;;;9.42;64.73;99747.41;1690289;83;26101;-82
2021/10/24 11:11:41;;;;;;;;;;;;;;;9.48;64.69;99753.66;1725359;83;24483;-81
2021/10/24 11:14:17;;;;;;;;;;;;;;;9.58;64.65;99743.19;1723897;83;20365;-82
2021/10/24 11:16:53;;;;;;;;;;;;;;;9.77;64.65;99746.25;1728971;81;25493;-82
2021/10/24 11:19:31;;;;;;;;;;;;;;;9.93;64.66;99748.09;1724411;82;22232;-82
2021/10/24 11:22:02;;;;;;;;;;;;;;;10.10;64.65;99740.77;1724628;81;26070;-82
2021/10/24 11:24:48;;;;;;;;;;;;;;;10.24;64.62;99742.33;1725939;83;24513;-81
2021/10/24 11:27:18;;;;;;;;;;;;;;;10.37;64.55;99742.11;1726509;82;20301;-82
2021/10/24 11:29:58;;;;;;;;;;;;;;;10.48;64.45;99738.98;1726651;83;25398;-82
2021/10/24 11:32:27;;;;;;;;;;;;;;;10.58;64.37;99741.56;1723019;81;21985;-82
2021/10/24 11:34:54;;;;;;;;;;;;;;;10.46;64.18;99736.45;1725914;81;26138;-82
2021/10/24 11:37:34;;;;;;;;;;;;;;;10.40;63.95;99730.66;1727513;81;24745;-81
2021/10/24 11:40:08;;;;;;;;;;;;;;;10.41;63.76;99731.91;1727425;82;20253;-81
2021/10/24 11:42:33;;;;;;;;;;;;;;;10.37;63.63;99730.80;1725533;81;25352;-82
2021/10/24 11:45:01;;;;;;;;;;;;;;;10.24;63.33;99726.64;1726311;83;22023;-81
2021/10/24 11:47:26;;;;;;;;;;;;;;;10.21;63.14;99724.60;1723099;82;26139;-82
2021/10/24 11:49:53;;;;;;;;;;;;;;;10.20;62.96;99721.14;1725518;81;20867;-82
2021/10/24 11:52:26;;;;;;;;;;;;;;;10.30;62.88;99717.19;1726987;81;20595;-81
2021/10/24 11:55:00;;;;;;;;;;;;;;;10.37;62.78;99718.56;1724537;81;24826;-82
2021/10/24 11:57:45;;;;;;;;;;;;;;;10.45;62.68;99710.35;1728078;81;23053;-82
2021/10/24 12:00:06;;;;;;;;;;;;;;;10.51;62.57;99711.82;1723604;81;26719;-82
2021/10/24 12:02:25;;;;;;;;;;;;;;;10.46;62.41;99711.59;1723496;81;25545;-82
2021/10/24 12:04:51;;;;;;;;;;;;;;;10.51;62.32;99703.52;1693897;84;20852;-81
2021/10/24 12:07:17;;;;;;;;;;;;;;;10.60;62.27;99696.96;1686391;83;20841;-81
2021/10/24 12:09:50;;;;;;;;;;;;;;;10.72;62.24;99701.59;1681882;85;21972;-82
2021/10/24 12:12:19;;;;;;;;;;;;;;;10.69;62.13;99701.76;1695991;83;26049;-82
2021/10/24 12:15:02;;;;;;;;;;;;;;;10.74;62.03;99699.75;1664307;86;24397;-82
2021/10/24 12:17:30;;;;;;;;;;;;;;;10.75;61.97;99697.03;1740207;82;20183;-81
2021/10/24 12:20:07;;;;;;;;;;;;;;;10.69;61.79;99688.67;1744507;81;24745;-81
2021/10/24 12:22:37;;;;;;;;;;;;;;;10.59;61.58;99692.64;1743859;80;22789;-82
2021/10/24 12:25:03;;;;;;;;;;;;;;;10.53;61.41;99686.43;1731289;81;26011;-81
2021/10/24 12:27:32;;;;;;;;;;;;;;;10.47;61.24;99684.47;1726523;81;24529;-81
2021/10/24 12:29:59;;;;;;;;;;;;;;;10.44;61.09;99681.17;1727700;81;20243;-82
2021/10/24 12:32:26;;;;;;;;;;;;;;;10.43;60.97;99673.78;1726874;80;24751;-82
2021/10/24 12:35:00;;;;;;;;;;;;;;;10.53;60.92;99671.55;1728024;82;21971;-82
2021/10/24 12:37:26;;;;;;;;;;;;;;;10.55;60.85;99668.86;1727726;81;26184;-82
2021/10/24 12:40:11;;;;;;;;;;;;;;;10.52;60.75;99669.88;1690229;83;24514;-82
2021/10/24 12:42:37;;;;;;;;;;;;;;;10.58;60.70;99662.18;1725620;82;20262;-82
2021/10/24 12:45:05;;;;;;;;;;;;;;;10.66;60.66;99665.24;1699567;83;20816;-81
2021/10/24 12:47:30;;;;;;;;;;;;;;;10.81;60.67;99661.84;1726902;83;22049;-82
2021/10/24 12:49:56;;;;;;;;;;;;;;;10.83;60.58;99661.31;1728904;82;20932;-82
2021/10/24 12:52:23;;;;;;;;;;;;;;;10.81;60.50;99656.59;1728179;81;24483;-82
2021/10/24 12:54:59;;;;;;;;;;;;;;;10.75;60.31;99655.59;1728585;82;20254;-82
2021/10/24 12:57:25;;;;;;;;;;;;;;;10.71;60.14;99650.14;1727306;83;25411;-82